Moor — 9HA4411 — position and weather

sailwx.info

Track history (hours):
 
Tides and Currents Weather Stations Pressure Air Temp Water Temp Dewpoint Dewpoint Depression Visibility Wind Speed Wind Dir Waves Ship Positions

Moor

Last reported at 2018-Jul-22 15:38 UTC. Time now 2018-Jul-23 00:19 UTC.
Position N 35°53' E 014°31'.

Length 37 m; draft 2.5 m.

Type: Pollution control. MMSI: 249868000.

Date/timePositionNaut miles runAvg speedWind from/ knotsBaromVisibWave heightAir tempDewpointWater temp
2018-Jul-22 15:38N 35°53' E 014°31'0 0.0
2018-Jul-22 14:52N 35°53' E 014°31'0 0.0
2018-Jul-22 14:30N 35°53' E 014°31'0 0.0
2018-Jul-22 13:59N 35°53' E 014°31'0 0.0
2018-Jul-22 13:30N 35°53' E 014°31'17 0.4
2018-Jul-20 18:58N 35°52' E 014°51'0 0.1
2018-Jul-20 18:30N 35°52' E 014°51'0 0.0
2018-Jul-20 18:00N 35°52' E 014°51'0 0.0
2018-Jul-20 17:30N 35°52' E 014°51'2 3.4
2018-Jul-20 17:00N 35°53' E 014°49'4 7.3
2018-Jul-20 16:30N 35°54' E 014°45'4 7.4
2018-Jul-20 15:59N 35°55' E 014°40'4 7.4
2018-Jul-20 15:30N 35°54' E 014°36'4 7.5
2018-Jul-20 15:00N 35°54' E 014°31'1 0.6
2018-Jul-20 13:29N 35°53' E 014°31'0 0.0
2018-Jul-20 13:00N 35°53' E 014°31'0 0.0
2018-Jul-20 12:30N 35°53' E 014°31'0 0.0
2018-Jul-20 12:00N 35°53' E 014°31'0 0.0
2018-Jul-20 11:30N 35°53' E 014°31'0 0.0
2018-Jul-20 11:00N 35°53' E 014°31'0 0.0
2018-Jul-20 10:30N 35°53' E 014°31'0 0.0
2018-Jul-20 10:00N 35°53' E 014°31'0 0.0
2018-Jul-20 09:30N 35°53' E 014°31'0 0.0
2018-Jul-20 08:55N 35°53' E 014°31'0 0.0
2018-Jul-20 08:26N 35°53' E 014°31'0 0.0
2018-Jul-20 08:00N 35°53' E 014°31'0 0.0
2018-Jul-20 07:30N 35°53' E 014°31'0 0.0
2018-Jul-20 06:07N 35°53' E 014°31'0 0.0
2018-Jul-20 06:00N 35°53' E 014°31'0 0.3
2018-Jul-20 05:30N 35°53' E 014°31'0 0.0
2018-Jul-20 03:46N 35°53' E 014°31'0 0.0
2018-Jul-20 03:30N 35°53' E 014°31'0 0.0
2018-Jul-20 03:00N 35°53' E 014°31'0 0.0
2018-Jul-20 02:30N 35°53' E 014°31'0 0.0
2018-Jul-20 02:00N 35°53' E 014°31'0 0.0
2018-Jul-20 00:56N 35°53' E 014°31'0 0.0
2018-Jul-20 00:30N 35°53' E 014°31'0 0.0
2018-Jul-19 23:58N 35°53' E 014°31'0 0.0
2018-Jul-19 23:29N 35°53' E 014°31'0 0.0
2018-Jul-19 22:59N 35°53' E 014°31'0 0.0
2018-Jul-19 22:25N 35°53' E 014°31'0 0.0
2018-Jul-19 21:00N 35°53' E 014°31'0 0.0
2018-Jul-19 19:57N 35°53' E 014°31'0 0.0
2018-Jul-19 19:30N 35°53' E 014°31'0 0.0
2018-Jul-19 19:00N 35°53' E 014°31'0 0.0
2018-Jul-19 18:30N 35°53' E 014°31'2 3.9
2018-Jul-19 18:00N 35°54' E 014°33'4 8.7
2018-Jul-19 17:30N 35°55' E 014°38'4 8.6
2018-Jul-19 17:00N 35°56' E 014°43'4 8.3
2018-Jul-19 16:30N 35°57' E 014°48'3 5.9
2018-Jul-19 15:58N 35°58' E 014°52'1 2.9
2018-Jul-19 15:30N 35°58' E 014°50'4 7.8
2018-Jul-19 14:59N 35°57' E 014°46'4 7.7
2018-Jul-19 14:30N 35°56' E 014°41'8 7.7
2018-Jul-19 13:30N 35°54' E 014°32'1 1.1
2018-Jul-19 12:25N 35°53' E 014°31'0 0.1
2018-Jul-19 11:06N 35°53' E 014°31'0 0.0
2018-Jul-19 11:00N 35°53' E 014°31'0 0.0
2018-Jul-19 03:16N 35°53' E 014°31'0 0.0
2018-Jul-18 15:53N 35°53' E 014°31'0 0.0
2018-Jul-18 15:29N 35°53' E 014°31'0 0.0
2018-Jul-18 15:00N 35°53' E 014°31'0 0.0
2018-Jul-18 14:30N 35°53' E 014°31'0 0.0
2018-Jul-18 13:30N 35°53' E 014°31'0 0.0
2018-Jul-18 13:00N 35°53' E 014°31'0 0.0
2018-Jul-18 12:30N 35°53' E 014°31'0 0.0
2018-Jul-18 11:54N 35°53' E 014°31'0 0.0
2018-Jul-18 11:30N 35°53' E 014°31'0 0.0
2018-Jul-18 10:23N 35°53' E 014°31'0 0.0
2018-Jul-17 07:13N 35°53' E 014°31'0 0.0
2018-Jul-17 07:00N 35°53' E 014°31'0 0.0
2018-Jul-17 06:30N 35°53' E 014°31'0 0.0
2018-Jul-17 06:00N 35°53' E 014°31'0 0.0
2018-Jul-17 05:16N 35°53' E 014°31'0 0.0
2018-Jul-17 05:00N 35°53' E 014°31'0 0.0
2018-Jul-17 00:06N 35°53' E 014°31'0 0.0
2018-Jul-16 23:26N 35°53' E 014°31'0 0.0
2018-Jul-16 23:00N 35°53' E 014°31'0 0.0
2018-Jul-16 17:08N 35°53' E 014°31'0 0.0
2018-Jul-16 16:59N 35°53' E 014°31'0 0.0
2018-Jul-16 15:00N 35°53' E 014°31'0 0.0
2018-Jul-16 13:27N 35°53' E 014°31'0 0.0
2018-Jul-16 13:00N 35°53' E 014°31'0 0.0
2018-Jul-16 12:30N 35°53' E 014°31'0 0.0
2018-Jul-16 12:00N 35°53' E 014°31'0 0.0
2018-Jul-16 11:30N 35°53' E 014°31'0 0.0
2018-Jul-16 10:43N 35°53' E 014°31'0 0.0
2018-Jul-16 10:29N 35°53' E 014°31'0 0.0
2018-Jul-16 10:00N 35°53' E 014°31'0 0.0
2018-Jul-16 09:30N 35°53' E 014°31'0 0.0
2018-Jul-16 09:00N 35°53' E 014°31'0 0.0
2018-Jul-16 08:30N 35°53' E 014°31'  
2018-Jul-14 04:03N 35°53' E 014°31'0 0.0
2018-Jul-14 03:53N 35°53' E 014°31'0 0.0
2018-Jul-13 20:38N 35°53' E 014°31'0 0.0
2018-Jul-13 20:25N 35°53' E 014°31'0 0.0
2018-Jul-13 20:00N 35°53' E 014°31'0 0.0
2018-Jul-13 19:30N 35°53' E 014°31'0 0.0
2018-Jul-13 19:00N 35°53' E 014°31'0 0.0
2018-Jul-13 18:30N 35°53' E 014°31'0 0.0
2018-Jul-13 18:00N 35°53' E 014°31'0 0.0
2018-Jul-13 15:33N 35°53' E 014°31'0 0.0
2018-Jul-13 15:26N 35°53' E 014°31'0 0.0
2018-Jul-13 15:00N 35°53' E 014°31'0 0.0
2018-Jul-13 14:29N 35°53' E 014°31'0 0.0
2018-Jul-13 13:30N 35°53' E 014°31'0 0.0
2018-Jul-13 12:58N 35°53' E 014°31'0 0.0
2018-Jul-13 12:30N 35°53' E 014°31'0 0.0
2018-Jul-13 12:00N 35°53' E 014°31'0 0.0
2018-Jul-13 11:30N 35°53' E 014°31'0 0.0
2018-Jul-13 11:00N 35°53' E 014°31'0 0.0
2018-Jul-13 10:30N 35°53' E 014°31'0 0.0
2018-Jul-13 10:00N 35°53' E 014°31'0 0.0
2018-Jul-13 09:30N 35°53' E 014°31'0 0.0
2018-Jul-13 09:00N 35°53' E 014°31'0 0.0
2018-Jul-13 08:30N 35°53' E 014°31'0 0.0
2018-Jul-13 08:00N 35°53' E 014°31'0 0.0
2018-Jul-13 07:30N 35°53' E 014°31'0 0.0
2018-Jul-13 06:57N 35°53' E 014°31'0 0.0
2018-Jul-13 06:30N 35°53' E 014°31'0 0.0
2018-Jul-13 06:00N 35°53' E 014°31'0 0.0
2018-Jul-13 05:29N 35°53' E 014°31'0 0.0
2018-Jul-13 05:00N 35°53' E 014°31'0 0.0
2018-Jul-13 04:29N 35°53' E 014°31'0 0.0
2018-Jul-13 04:00N 35°53' E 014°31'0 0.0
2018-Jul-13 03:29N 35°53' E 014°31'0 0.0
2018-Jul-13 03:00N 35°53' E 014°31'0 0.0
2018-Jul-13 02:30N 35°53' E 014°31'0 0.0
2018-Jul-13 02:00N 35°53' E 014°31'0 0.0
2018-Jul-13 01:30N 35°53' E 014°31'0 0.0
2018-Jul-13 01:00N 35°53' E 014°31'0 0.0
2018-Jul-13 00:30N 35°53' E 014°31'0 0.0
2018-Jul-13 00:00N 35°53' E 014°31'0 0.0
2018-Jul-12 23:30N 35°53' E 014°31'0 0.0
2018-Jul-12 23:00N 35°53' E 014°31'0 0.0
2018-Jul-12 22:30N 35°53' E 014°31'0 0.0
2018-Jul-12 20:46N 35°53' E 014°31'0 0.0
2018-Jul-12 20:03N 35°53' E 014°31'0 0.0
2018-Jul-12 20:00N 35°53' E 014°31'0 0.0
2018-Jul-12 19:04N 35°53' E 014°31'0 0.0
2018-Jul-12 19:00N 35°53' E 014°31'0 0.0
2018-Jul-12 18:15N 35°53' E 014°31'0 0.0
2018-Jul-12 18:00N 35°53' E 014°31'0 0.0
2018-Jul-12 17:30N 35°53' E 014°31'0 0.0
2018-Jul-12 15:42N 35°53' E 014°31'  
Track history (hours):
 
Tides and Currents Weather Stations Pressure Air Temp Water Temp Dewpoint Dewpoint Depression Visibility Wind Speed Wind Dir Waves Ship Positions

Moor

Last reported at 2018-Jul-22 15:38 UTC. Time now 2018-Jul-23 00:19 UTC.
Position N 35°53' E 014°31'.

Length 37 m; draft 2.5 m.

Type: Pollution control. MMSI: 249868000.

Date/timePositionNaut miles runAvg speedWind from/ knotsBaromVisibWave heightAir tempDewpointWater temp
2018-Jul-22 15:38N 35°53' E 014°31'0 0.0
2018-Jul-22 14:52N 35°53' E 014°31'0 0.0
2018-Jul-22 14:30N 35°53' E 014°31'0 0.0
2018-Jul-22 13:59N 35°53' E 014°31'0 0.0
2018-Jul-22 13:30N 35°53' E 014°31'17 0.4
2018-Jul-20 18:58N 35°52' E 014°51'0 0.1
2018-Jul-20 18:30N 35°52' E 014°51'0 0.0
2018-Jul-20 18:00N 35°52' E 014°51'0 0.0
2018-Jul-20 17:30N 35°52' E 014°51'2 3.4
2018-Jul-20 17:00N 35°53' E 014°49'4 7.3
2018-Jul-20 16:30N 35°54' E 014°45'4 7.4
2018-Jul-20 15:59N 35°55' E 014°40'4 7.4
2018-Jul-20 15:30N 35°54' E 014°36'4 7.5
2018-Jul-20 15:00N 35°54' E 014°31'1 0.6
2018-Jul-20 13:29N 35°53' E 014°31'0 0.0
2018-Jul-20 13:00N 35°53' E 014°31'0 0.0
2018-Jul-20 12:30N 35°53' E 014°31'0 0.0
2018-Jul-20 12:00N 35°53' E 014°31'0 0.0
2018-Jul-20 11:30N 35°53' E 014°31'0 0.0
2018-Jul-20 11:00N 35°53' E 014°31'0 0.0
2018-Jul-20 10:30N 35°53' E 014°31'0 0.0
2018-Jul-20 10:00N 35°53' E 014°31'0 0.0
2018-Jul-20 09:30N 35°53' E 014°31'0 0.0
2018-Jul-20 08:55N 35°53' E 014°31'0 0.0
2018-Jul-20 08:26N 35°53' E 014°31'0 0.0
2018-Jul-20 08:00N 35°53' E 014°31'0 0.0
2018-Jul-20 07:30N 35°53' E 014°31'0 0.0
2018-Jul-20 06:07N 35°53' E 014°31'0 0.0
2018-Jul-20 06:00N 35°53' E 014°31'0 0.3
2018-Jul-20 05:30N 35°53' E 014°31'0 0.0
2018-Jul-20 03:46N 35°53' E 014°31'0 0.0
2018-Jul-20 03:30N 35°53' E 014°31'0 0.0
2018-Jul-20 03:00N 35°53' E 014°31'0 0.0
2018-Jul-20 02:30N 35°53' E 014°31'0 0.0
2018-Jul-20 02:00N 35°53' E 014°31'0 0.0
2018-Jul-20 00:56N 35°53' E 014°31'0 0.0
2018-Jul-20 00:30N 35°53' E 014°31'0 0.0
2018-Jul-19 23:58N 35°53' E 014°31'0 0.0
2018-Jul-19 23:29N 35°53' E 014°31'0 0.0
2018-Jul-19 22:59N 35°53' E 014°31'0 0.0
2018-Jul-19 22:25N 35°53' E 014°31'0 0.0
2018-Jul-19 21:00N 35°53' E 014°31'0 0.0
2018-Jul-19 19:57N 35°53' E 014°31'0 0.0
2018-Jul-19 19:30N 35°53' E 014°31'0 0.0
2018-Jul-19 19:00N 35°53' E 014°31'0 0.0
2018-Jul-19 18:30N 35°53' E 014°31'2 3.9
2018-Jul-19 18:00N 35°54' E 014°33'4 8.7
2018-Jul-19 17:30N 35°55' E 014°38'4 8.6
2018-Jul-19 17:00N 35°56' E 014°43'4 8.3
2018-Jul-19 16:30N 35°57' E 014°48'3 5.9
2018-Jul-19 15:58N 35°58' E 014°52'1 2.9
2018-Jul-19 15:30N 35°58' E 014°50'4 7.8
2018-Jul-19 14:59N 35°57' E 014°46'4 7.7
2018-Jul-19 14:30N 35°56' E 014°41'8 7.7
2018-Jul-19 13:30N 35°54' E 014°32'1 1.1
2018-Jul-19 12:25N 35°53' E 014°31'0 0.1
2018-Jul-19 11:06N 35°53' E 014°31'0 0.0
2018-Jul-19 11:00N 35°53' E 014°31'0 0.0
2018-Jul-19 03:16N 35°53' E 014°31'0 0.0
2018-Jul-18 15:53N 35°53' E 014°31'0 0.0
2018-Jul-18 15:29N 35°53' E 014°31'0 0.0
2018-Jul-18 15:00N 35°53' E 014°31'0 0.0
2018-Jul-18 14:30N 35°53' E 014°31'0 0.0
2018-Jul-18 13:30N 35°53' E 014°31'0 0.0
2018-Jul-18 13:00N 35°53' E 014°31'0 0.0
2018-Jul-18 12:30N 35°53' E 014°31'0 0.0
2018-Jul-18 11:54N 35°53' E 014°31'0 0.0
2018-Jul-18 11:30N 35°53' E 014°31'0 0.0
2018-Jul-18 10:23N 35°53' E 014°31'0 0.0
2018-Jul-17 07:13N 35°53' E 014°31'0 0.0
2018-Jul-17 07:00N 35°53' E 014°31'0 0.0
2018-Jul-17 06:30N 35°53' E 014°31'0 0.0
2018-Jul-17 06:00N 35°53' E 014°31'0 0.0
2018-Jul-17 05:16N 35°53' E 014°31'0 0.0
2018-Jul-17 05:00N 35°53' E 014°31'0 0.0
2018-Jul-17 00:06N 35°53' E 014°31'0 0.0
2018-Jul-16 23:26N 35°53' E 014°31'0 0.0
2018-Jul-16 23:00N 35°53' E 014°31'0 0.0
2018-Jul-16 17:08N 35°53' E 014°31'0 0.0
2018-Jul-16 16:59N 35°53' E 014°31'0 0.0
2018-Jul-16 15:00N 35°53' E 014°31'0 0.0
2018-Jul-16 13:27N 35°53' E 014°31'0 0.0
2018-Jul-16 13:00N 35°53' E 014°31'0 0.0
2018-Jul-16 12:30N 35°53' E 014°31'0 0.0
2018-Jul-16 12:00N 35°53' E 014°31'0 0.0
2018-Jul-16 11:30N 35°53' E 014°31'0 0.0
2018-Jul-16 10:43N 35°53' E 014°31'0 0.0
2018-Jul-16 10:29N 35°53' E 014°31'0 0.0
2018-Jul-16 10:00N 35°53' E 014°31'0 0.0
2018-Jul-16 09:30N 35°53' E 014°31'0 0.0
2018-Jul-16 09:00N 35°53' E 014°31'0 0.0
2018-Jul-16 08:30N 35°53' E 014°31'  
2018-Jul-14 04:03N 35°53' E 014°31'0 0.0
2018-Jul-14 03:53N 35°53' E 014°31'0 0.0
2018-Jul-13 20:38N 35°53' E 014°31'0 0.0
2018-Jul-13 20:25N 35°53' E 014°31'0 0.0
2018-Jul-13 20:00N 35°53' E 014°31'0 0.0
2018-Jul-13 19:30N 35°53' E 014°31'0 0.0
2018-Jul-13 19:00N 35°53' E 014°31'0 0.0
2018-Jul-13 18:30N 35°53' E 014°31'0 0.0
2018-Jul-13 18:00N 35°53' E 014°31'0 0.0
2018-Jul-13 15:33N 35°53' E 014°31'0 0.0
2018-Jul-13 15:26N 35°53' E 014°31'0 0.0
2018-Jul-13 15:00N 35°53' E 014°31'0 0.0
2018-Jul-13 14:29N 35°53' E 014°31'0 0.0
2018-Jul-13 13:30N 35°53' E 014°31'0 0.0
2018-Jul-13 12:58N 35°53' E 014°31'0 0.0
2018-Jul-13 12:30N 35°53' E 014°31'0 0.0
2018-Jul-13 12:00N 35°53' E 014°31'0 0.0
2018-Jul-13 11:30N 35°53' E 014°31'0 0.0
2018-Jul-13 11:00N 35°53' E 014°31'0 0.0
2018-Jul-13 10:30N 35°53' E 014°31'0 0.0
2018-Jul-13 10:00N 35°53' E 014°31'0 0.0
2018-Jul-13 09:30N 35°53' E 014°31'0 0.0
2018-Jul-13 09:00N 35°53' E 014°31'0 0.0
2018-Jul-13 08:30N 35°53' E 014°31'0 0.0
2018-Jul-13 08:00N 35°53' E 014°31'0 0.0
2018-Jul-13 07:30N 35°53' E 014°31'0 0.0
2018-Jul-13 06:57N 35°53' E 014°31'0 0.0
2018-Jul-13 06:30N 35°53' E 014°31'0 0.0
2018-Jul-13 06:00N 35°53' E 014°31'0 0.0
2018-Jul-13 05:29N 35°53' E 014°31'0 0.0
2018-Jul-13 05:00N 35°53' E 014°31'0 0.0
2018-Jul-13 04:29N 35°53' E 014°31'0 0.0
2018-Jul-13 04:00N 35°53' E 014°31'0 0.0
2018-Jul-13 03:29N 35°53' E 014°31'0 0.0
2018-Jul-13 03:00N 35°53' E 014°31'0 0.0
2018-Jul-13 02:30N 35°53' E 014°31'0 0.0
2018-Jul-13 02:00N 35°53' E 014°31'0 0.0
2018-Jul-13 01:30N 35°53' E 014°31'0 0.0
2018-Jul-13 01:00N 35°53' E 014°31'0 0.0
2018-Jul-13 00:30N 35°53' E 014°31'0 0.0
2018-Jul-13 00:00N 35°53' E 014°31'0 0.0
2018-Jul-12 23:30N 35°53' E 014°31'0 0.0
2018-Jul-12 23:00N 35°53' E 014°31'0 0.0
2018-Jul-12 22:30N 35°53' E 014°31'0 0.0
2018-Jul-12 20:46N 35°53' E 014°31'0 0.0
2018-Jul-12 20:03N 35°53' E 014°31'0 0.0
2018-Jul-12 20:00N 35°53' E 014°31'0 0.0
2018-Jul-12 19:04N 35°53' E 014°31'0 0.0
2018-Jul-12 19:00N 35°53' E 014°31'0 0.0
2018-Jul-12 18:15N 35°53' E 014°31'0 0.0
2018-Jul-12 18:00N 35°53' E 014°31'0 0.0
2018-Jul-12 17:30N 35°53' E 014°31'0 0.0
2018-Jul-12 15:42N 35°53' E 014°31'  

Dump ship's entire track history